sensor_id;sensor_type;location;lat;lon;timestamp;pressure;altitude;pressure_sealevel;temperature;humidity
77110;BME280;66062;52.464;16.922;2023-04-24T00:01:25;99543.69;;;13.22;100.00
77110;BME280;66062;52.464;16.922;2023-04-24T00:03:51;99540.00;;;13.23;100.00
77110;BME280;66062;52.464;16.922;2023-04-24T00:06:17;99548.69;;;13.25;100.00
77110;BME280;66062;52.464;16.922;2023-04-24T00:08:42;99543.50;;;13.23;100.00
77110;BME280;66062;52.464;16.922;2023-04-24T00:11:08;99545.72;;;13.20;100.00
77110;BME280;66062;52.464;16.922;2023-04-24T00:13:35;99543.22;;;13.18;100.00
77110;BME280;66062;52.464;16.922;2023-04-24T00:16:00;99535.00;;;13.20;100.00
77110;BME280;66062;52.464;16.922;2023-04-24T00:18:26;99539.81;;;13.24;100.00
77110;BME280;66062;52.464;16.922;2023-04-24T00:20:51;99535.38;;;13.32;100.00
77110;BME280;66062;52.464;16.922;2023-04-24T00:23:16;99536.41;;;13.31;100.00
77110;BME280;66062;52.464;16.922;2023-04-24T00:25:42;99525.75;;;13.37;100.00
77110;BME280;66062;52.464;16.922;2023-04-24T00:28:07;99536.69;;;13.50;99.37
77110;BME280;66062;52.464;16.922;2023-04-24T00:30:32;99528.28;;;13.53;98.76
77110;BME280;66062;52.464;16.922;2023-04-24T00:32:58;99532.41;;;13.41;99.29
77110;BME280;66062;52.464;16.922;2023-04-24T00:35:23;99527.63;;;13.51;98.63
77110;BME280;66062;52.464;16.922;2023-04-24T00:37:49;99526.44;;;13.39;98.94
77110;BME280;66062;52.464;16.922;2023-04-24T00:40:15;99526.59;;;13.38;99.07
77110;BME280;66062;52.464;16.922;2023-04-24T00:42:40;99518.28;;;13.33;99.27
77110;BME280;66062;52.464;16.922;2023-04-24T00:45:06;99521.63;;;13.35;99.40
77110;BME280;66062;52.464;16.922;2023-04-24T00:47:33;99518.75;;;13.36;99.16
77110;BME280;66062;52.464;16.922;2023-04-24T00:50:01;99515.50;;;13.26;100.00
77110;BME280;66062;52.464;16.922;2023-04-24T00:52:27;99520.06;;;13.40;98.88
77110;BME280;66062;52.464;16.922;2023-04-24T00:54:53;99516.72;;;13.38;98.14
77110;BME280;66062;52.464;16.922;2023-04-24T00:57:19;99530.94;;;13.53;97.10
77110;BME280;66062;52.464;16.922;2023-04-24T00:59:45;99527.72;;;13.43;97.15
77110;BME280;66062;52.464;16.922;2023-04-24T01:02:11;99518.66;;;13.44;97.58
77110;BME280;66062;52.464;16.922;2023-04-24T01:04:37;99522.06;;;13.38;97.97
77110;BME280;66062;52.464;16.922;2023-04-24T01:07:03;99515.44;;;13.34;98.83
77110;BME280;66062;52.464;16.922;2023-04-24T01:09:29;99522.81;;;13.32;99.20
77110;BME280;66062;52.464;16.922;2023-04-24T01:11:55;99520.22;;;13.53;97.33
77110;BME280;66062;52.464;16.922;2023-04-24T01:14:22;99512.56;;;13.50;97.64
77110;BME280;66062;52.464;16.922;2023-04-24T01:16:47;99509.25;;;13.11;100.00
77110;BME280;66062;52.464;16.922;2023-04-24T01:19:14;99502.09;;;13.26;100.00
77110;BME280;66062;52.464;16.922;2023-04-24T01:21:41;99508.50;;;13.25;100.00
77110;BME280;66062;52.464;16.922;2023-04-24T01:24:08;99506.56;;;13.19;100.00
77110;BME280;66062;52.464;16.922;2023-04-24T01:26:34;99495.19;;;13.17;100.00
77110;BME280;66062;52.464;16.922;2023-04-24T01:28:59;99498.78;;;13.24;100.00
77110;BME280;66062;52.464;16.922;2023-04-24T01:31:25;99484.66;;;13.15;100.00
77110;BME280;66062;52.464;16.922;2023-04-24T01:33:51;99485.41;;;12.86;100.00
77110;BME280;66062;52.464;16.922;2023-04-24T01:36:16;99481.66;;;12.58;100.00
77110;BME280;66062;52.464;16.922;2023-04-24T01:38:43;99481.06;;;12.48;100.00
77110;BME280;66062;52.464;16.922;2023-04-24T01:41:09;99489.91;;;12.34;100.00
77110;BME280;66062;52.464;16.922;2023-04-24T01:43:35;99489.75;;;12.50;100.00
77110;BME280;66062;52.464;16.922;2023-04-24T01:46:00;99490.81;;;12.41;100.00
77110;BME280;66062;52.464;16.922;2023-04-24T01:48:26;99486.22;;;12.50;100.00
77110;BME280;66062;52.464;16.922;2023-04-24T01:50:52;99484.50;;;12.57;100.00
77110;BME280;66062;52.464;16.922;2023-04-24T01:53:17;99487.91;;;12.51;100.00
77110;BME280;66062;52.464;16.922;2023-04-24T01:55:43;99494.03;;;12.36;100.00
77110;BME280;66062;52.464;16.922;2023-04-24T01:58:09;99485.00;;;12.37;100.00
77110;BME280;66062;52.464;16.922;2023-04-24T02:00:34;99490.81;;;12.41;100.00
77110;BME280;66062;52.464;16.922;2023-04-24T02:03:00;99488.03;;;12.57;100.00
77110;BME280;66062;52.464;16.922;2023-04-24T02:05:27;99483.34;;;12.59;100.00
77110;BME280;66062;52.464;16.922;2023-04-24T02:07:53;99479.28;;;12.63;100.00
77110;BME280;66062;52.464;16.922;2023-04-24T02:10:18;99479.88;;;12.51;100.00
77110;BME280;66062;52.464;16.922;2023-04-24T02:12:43;99481.16;;;12.55;100.00
77110;BME280;66062;52.464;16.922;2023-04-24T02:15:09;99477.59;;;12.62;100.00
77110;BME280;66062;52.464;16.922;2023-04-24T02:17:35;99475.88;;;12.69;100.00
77110;BME280;66062;52.464;16.922;2023-04-24T02:20:00;99470.97;;;12.58;100.00
77110;BME280;66062;52.464;16.922;2023-04-24T02:22:25;99473.53;;;12.66;100.00
77110;BME280;66062;52.464;16.922;2023-04-24T02:24:51;99466.44;;;12.59;100.00
77110;BME280;66062;52.464;16.922;2023-04-24T02:27:16;99460.53;;;12.63;100.00
77110;BME280;66062;52.464;16.922;2023-04-24T02:29:42;99453.94;;;12.51;100.00
77110;BME280;66062;52.464;16.922;2023-04-24T02:32:07;99447.28;;;12.47;100.00
77110;BME280;66062;52.464;16.922;2023-04-24T02:34:36;99437.06;;;12.51;100.00
77110;BME280;66062;52.464;16.922;2023-04-24T02:37:02;99441.28;;;12.45;100.00
77110;BME280;66062;52.464;16.922;2023-04-24T02:39:27;99442.31;;;12.44;100.00
77110;BME280;66062;52.464;16.922;2023-04-24T02:41:53;99436.44;;;12.26;100.00
77110;BME280;66062;52.464;16.922;2023-04-24T02:44:18;99433.75;;;12.26;100.00
77110;BME280;66062;52.464;16.922;2023-04-24T02:46:44;99435.78;;;12.24;100.00
77110;BME280;66062;52.464;16.922;2023-04-24T02:49:09;99440.91;;;12.33;100.00
77110;BME280;66062;52.464;16.922;2023-04-24T02:51:37;99435.63;;;12.40;100.00
77110;BME280;66062;52.464;16.922;2023-04-24T02:54:06;99431.63;;;12.44;100.00
77110;BME280;66062;52.464;16.922;2023-04-24T02:56:31;99430.28;;;12.40;100.00
77110;BME280;66062;52.464;16.922;2023-04-24T02:58:57;99422.34;;;12.32;100.00
77110;BME280;66062;52.464;16.922;2023-04-24T03:01:22;99426.19;;;12.29;100.00
77110;BME280;66062;52.464;16.922;2023-04-24T03:03:48;99435.34;;;12.35;100.00
77110;BME280;66062;52.464;16.922;2023-04-24T03:06:14;99433.22;;;12.30;100.00
77110;BME280;66062;52.464;16.922;2023-04-24T03:08:40;99430.28;;;12.40;100.00
77110;BME280;66062;52.464;16.922;2023-04-24T03:11:06;99421.78;;;12.36;100.00
77110;BME280;66062;52.464;16.922;2023-04-24T03:13:31;99420.13;;;12.35;100.00
77110;BME280;66062;52.464;16.922;2023-04-24T03:15:56;99418.75;;;12.39;100.00
77110;BME280;66062;52.464;16.922;2023-04-24T03:18:22;99413.06;;;12.42;100.00
77110;BME280;66062;52.464;16.922;2023-04-24T03:20:47;99413.50;;;12.46;100.00
77110;BME280;66062;52.464;16.922;2023-04-24T03:23:13;99407.69;;;12.42;100.00
77110;BME280;66062;52.464;16.922;2023-04-24T03:25:39;99407.31;;;12.46;100.00
77110;BME280;66062;52.464;16.922;2023-04-24T03:28:04;99393.56;;;12.34;100.00
77110;BME280;66062;52.464;16.922;2023-04-24T03:30:30;99400.56;;;12.35;100.00
77110;BME280;66062;52.464;16.922;2023-04-24T03:32:55;99396.41;;;12.32;100.00
77110;BME280;66062;52.464;16.922;2023-04-24T03:35:20;99395.41;;;12.33;100.00
77110;BME280;66062;52.464;16.922;2023-04-24T03:37:47;99389.66;;;12.22;100.00
77110;BME280;66062;52.464;16.922;2023-04-24T03:40:12;99389.00;;;12.20;100.00
77110;BME280;66062;52.464;16.922;2023-04-24T03:42:38;99386.69;;;12.17;100.00
77110;BME280;66062;52.464;16.922;2023-04-24T03:45:03;99381.03;;;12.12;100.00
77110;BME280;66062;52.464;16.922;2023-04-24T03:47:29;99377.00;;;12.16;100.00
77110;BME280;66062;52.464;16.922;2023-04-24T03:49:54;99369.50;;;12.11;100.00
77110;BME280;66062;52.464;16.922;2023-04-24T03:52:21;99376.81;;;11.94;100.00
77110;BME280;66062;52.464;16.922;2023-04-24T03:54:46;99371.47;;;11.94;100.00
77110;BME280;66062;52.464;16.922;2023-04-24T03:57:12;99358.94;;;11.95;100.00
77110;BME280;66062;52.464;16.922;2023-04-24T03:59:37;99354.69;;;11.86;100.00
77110;BME280;66062;52.464;16.922;2023-04-24T04:02:02;99358.19;;;11.86;100.00
77110;BME280;66062;52.464;16.922;2023-04-24T04:04:28;99364.50;;;11.93;100.00
77110;BME280;66062;52.464;16.922;2023-04-24T04:06:53;99369.25;;;11.83;100.00
77110;BME280;66062;52.464;16.922;2023-04-24T04:09:19;99368.41;;;11.83;100.00
77110;BME280;66062;52.464;16.922;2023-04-24T04:11:44;99386.59;;;11.87;100.00
77110;BME280;66062;52.464;16.922;2023-04-24T04:14:10;99378.44;;;12.04;100.00
77110;BME280;66062;52.464;16.922;2023-04-24T04:16:36;99385.38;;;12.13;100.00
77110;BME280;66062;52.464;16.922;2023-04-24T04:19:02;99381.81;;;12.20;100.00
77110;BME280;66062;52.464;16.922;2023-04-24T04:21:28;99380.72;;;12.29;100.00
77110;BME280;66062;52.464;16.922;2023-04-24T04:23:54;99386.56;;;12.33;100.00
77110;BME280;66062;52.464;16.922;2023-04-24T04:26:19;99386.13;;;12.44;100.00
77110;BME280;66062;52.464;16.922;2023-04-24T04:28:47;99386.72;;;12.69;100.00
77110;BME280;66062;52.464;16.922;2023-04-24T04:31:17;99380.78;;;12.59;100.00
77110;BME280;66062;52.464;16.922;2023-04-24T04:33:48;99378.84;;;12.67;100.00
77110;BME280;66062;52.464;16.922;2023-04-24T04:36:13;99370.09;;;12.73;100.00
77110;BME280;66062;52.464;16.922;2023-04-24T04:38:39;99374.44;;;12.74;100.00
77110;BME280;66062;52.464;16.922;2023-04-24T04:41:06;99371.81;;;12.81;100.00
77110;BME280;66062;52.464;16.922;2023-04-24T04:43:32;99368.97;;;12.82;100.00
77110;BME280;66062;52.464;16.922;2023-04-24T04:46:02;99370.91;;;12.89;100.00
77110;BME280;66062;52.464;16.922;2023-04-24T04:48:28;99364.28;;;13.14;100.00
77110;BME280;66062;52.464;16.922;2023-04-24T04:50:58;99360.75;;;12.99;100.00
77110;BME280;66062;52.464;16.922;2023-04-24T04:53:23;99365.38;;;13.05;100.00
77110;BME280;66062;52.464;16.922;2023-04-24T04:55:49;99374.03;;;13.07;99.82
77110;BME280;66062;52.464;16.922;2023-04-24T04:58:15;99374.63;;;13.17;97.60
77110;BME280;66062;52.464;16.922;2023-04-24T05:00:40;99366.66;;;13.09;98.17
77110;BME280;66062;52.464;16.922;2023-04-24T05:03:07;99368.69;;;13.07;98.63
77110;BME280;66062;52.464;16.922;2023-04-24T05:05:32;99358.38;;;12.89;100.00
77110;BME280;66062;52.464;16.922;2023-04-24T05:07:58;99358.72;;;12.86;100.00
77110;BME280;66062;52.464;16.922;2023-04-24T05:10:24;99359.09;;;13.12;98.70
77110;BME280;66062;52.464;16.922;2023-04-24T05:12:49;99358.94;;;13.14;98.33
77110;BME280;66062;52.464;16.922;2023-04-24T05:15:15;99367.97;;;13.13;98.04
77110;BME280;66062;52.464;16.922;2023-04-24T05:17:40;99363.06;;;13.16;97.47
77110;BME280;66062;52.464;16.922;2023-04-24T05:20:06;99366.97;;;13.14;98.00
77110;BME280;66062;52.464;16.922;2023-04-24T05:22:34;99370.19;;;13.24;96.58
77110;BME280;66062;52.464;16.922;2023-04-24T05:24:59;99355.53;;;13.41;95.92
77110;BME280;66062;52.464;16.922;2023-04-24T05:27:25;99364.34;;;13.56;94.58
77110;BME280;66062;52.464;16.922;2023-04-24T05:29:50;99370.50;;;13.71;92.53
77110;BME280;66062;52.464;16.922;2023-04-24T05:32:16;99364.06;;;13.66;93.22
77110;BME280;66062;52.464;16.922;2023-04-24T05:34:42;99369.63;;;13.64;92.98
77110;BME280;66062;52.464;16.922;2023-04-24T05:37:08;99355.47;;;13.70;92.51
77110;BME280;66062;52.464;16.922;2023-04-24T05:39:35;99361.56;;;13.64;92.99
77110;BME280;66062;52.464;16.922;2023-04-24T05:42:01;99356.41;;;13.84;91.22
77110;BME280;66062;52.464;16.922;2023-04-24T05:44:27;99364.38;;;13.99;90.64
77110;BME280;66062;52.464;16.922;2023-04-24T05:46:53;99367.81;;;14.14;88.62
77110;BME280;66062;52.464;16.922;2023-04-24T05:49:22;99364.13;;;14.15;88.99
77110;BME280;66062;52.464;16.922;2023-04-24T05:51:47;99363.59;;;14.26;88.40
77110;BME280;66062;52.464;16.922;2023-04-24T05:54:13;99363.91;;;14.38;86.92
77110;BME280;66062;52.464;16.922;2023-04-24T05:56:39;99367.81;;;14.63;85.53
77110;BME280;66062;52.464;16.922;2023-04-24T05:59:05;99356.88;;;14.99;83.62
77110;BME280;66062;52.464;16.922;2023-04-24T06:01:30;99363.63;;;15.29;81.48
77110;BME280;66062;52.464;16.922;2023-04-24T06:03:56;99354.31;;;15.25;81.01
77110;BME280;66062;52.464;16.922;2023-04-24T06:06:23;99360.56;;;14.91;82.92
77110;BME280;66062;52.464;16.922;2023-04-24T06:08:49;99360.75;;;14.90;83.07
77110;BME280;66062;52.464;16.922;2023-04-24T06:11:14;99350.56;;;14.72;83.92
77110;BME280;66062;52.464;16.922;2023-04-24T06:13:40;99358.72;;;14.58;83.91
77110;BME280;66062;52.464;16.922;2023-04-24T06:16:06;99366.06;;;14.77;83.83
77110;BME280;66062;52.464;16.922;2023-04-24T06:18:31;99357.78;;;14.72;83.94
77110;BME280;66062;52.464;16.922;2023-04-24T06:20:57;99361.28;;;14.72;82.94
77110;BME280;66062;52.464;16.922;2023-04-24T06:23:22;99362.22;;;14.58;83.99
77110;BME280;66062;52.464;16.922;2023-04-24T06:25:48;99365.78;;;14.65;83.35
77110;BME280;66062;52.464;16.922;2023-04-24T06:28:14;99365.47;;;14.53;83.74
77110;BME280;66062;52.464;16.922;2023-04-24T06:30:39;99357.78;;;14.44;84.25
77110;BME280;66062;52.464;16.922;2023-04-24T06:33:04;99353.47;;;14.49;84.12
77110;BME280;66062;52.464;16.922;2023-04-24T06:35:30;99354.50;;;14.48;83.92
77110;BME280;66062;52.464;16.922;2023-04-24T06:37:55;99355.56;;;14.47;83.83
77110;BME280;66062;52.464;16.922;2023-04-24T06:40:21;99361.59;;;14.56;84.27
77110;BME280;66062;52.464;16.922;2023-04-24T06:42:47;99367.78;;;14.57;83.53
77110;BME280;66062;52.464;16.922;2023-04-24T06:45:13;99348.47;;;14.74;82.06
77110;BME280;66062;52.464;16.922;2023-04-24T06:47:39;99352.41;;;14.72;82.75
77110;BME280;66062;52.464;16.922;2023-04-24T06:50:05;99352.78;;;15.03;82.19
77110;BME280;66062;52.464;16.922;2023-04-24T06:52:30;99352.94;;;15.43;79.56
77110;BME280;66062;52.464;16.922;2023-04-24T06:55:00;99356.16;;;15.18;81.01
77110;BME280;66062;52.464;16.922;2023-04-24T06:57:28;99359.72;;;15.32;80.05
77110;BME280;66062;52.464;16.922;2023-04-24T06:59:54;99352.84;;;15.64;78.22
77110;BME280;66062;52.464;16.922;2023-04-24T07:02:19;99358.09;;;16.64;74.48
77110;BME280;66062;52.464;16.922;2023-04-24T07:04:45;99349.25;;;17.08;72.96
77110;BME280;66062;52.464;16.922;2023-04-24T07:07:12;99353.56;;;17.22;70.40
77110;BME280;66062;52.464;16.922;2023-04-24T07:09:40;99348.50;;;16.94;71.13
77110;BME280;66062;52.464;16.922;2023-04-24T07:12:09;99350.34;;;17.51;69.36
77110;BME280;66062;52.464;16.922;2023-04-24T07:14:36;99348.69;;;17.88;66.85
77110;BME280;66062;52.464;16.922;2023-04-24T07:17:05;99348.59;;;17.70;66.77
77110;BME280;66062;52.464;16.922;2023-04-24T07:19:33;99347.47;;;17.84;67.14
77110;BME280;66062;52.464;16.922;2023-04-24T07:22:03;99357.22;;;17.85;66.92
77110;BME280;66062;52.464;16.922;2023-04-24T07:24:29;99365.63;;;17.20;69.28
77110;BME280;66062;52.464;16.922;2023-04-24T07:26:57;99355.41;;;16.71;70.46
77110;BME280;66062;52.464;16.922;2023-04-24T07:29:23;99358.69;;;16.53;71.61
77110;BME280;66062;52.464;16.922;2023-04-24T07:31:51;99367.84;;;16.58;72.05
77110;BME280;66062;52.464;16.922;2023-04-24T07:34:18;99353.94;;;16.02;73.20
77110;BME280;66062;52.464;16.922;2023-04-24T07:36:43;99351.81;;;15.71;75.65
77110;BME280;66062;52.464;16.922;2023-04-24T07:39:09;99354.88;;;15.55;76.08
77110;BME280;66062;52.464;16.922;2023-04-24T07:41:35;99358.72;;;15.39;77.02
77110;BME280;66062;52.464;16.922;2023-04-24T07:44:00;99352.41;;;15.54;77.14
77110;BME280;66062;52.464;16.922;2023-04-24T07:46:30;99354.75;;;16.03;75.21
77110;BME280;66062;52.464;16.922;2023-04-24T07:48:56;99358.88;;;16.84;72.33
77110;BME280;66062;52.464;16.922;2023-04-24T07:51:22;99358.09;;;18.60;66.03
77110;BME280;66062;52.464;16.922;2023-04-24T07:53:48;99345.84;;;19.01;62.54
77110;BME280;66062;52.464;16.922;2023-04-24T07:56:13;99348.13;;;18.36;64.55
77110;BME280;66062;52.464;16.922;2023-04-24T07:58:39;99346.81;;;19.06;63.31
77110;BME280;66062;52.464;16.922;2023-04-24T08:01:05;99353.47;;;20.30;59.05
77110;BME280;66062;52.464;16.922;2023-04-24T08:03:30;99341.81;;;19.88;58.97
77110;BME280;66062;52.464;16.922;2023-04-24T08:05:57;99352.13;;;19.31;60.73
77110;BME280;66062;52.464;16.922;2023-04-24T08:08:23;99356.56;;;17.52;67.96
77110;BME280;66062;52.464;16.922;2023-04-24T08:10:50;99353.78;;;18.03;66.55
77110;BME280;66062;52.464;16.922;2023-04-24T08:13:15;99357.13;;;17.99;65.86
77110;BME280;66062;52.464;16.922;2023-04-24T08:15:42;99356.50;;;17.59;67.13
77110;BME280;66062;52.464;16.922;2023-04-24T08:18:07;99362.47;;;17.23;68.87
77110;BME280;66062;52.464;16.922;2023-04-24T08:20:33;99364.66;;;16.88;69.67
77110;BME280;66062;52.464;16.922;2023-04-24T08:22:58;99364.28;;;16.51;71.90
77110;BME280;66062;52.464;16.922;2023-04-24T08:25:24;99375.06;;;16.58;71.38
77110;BME280;66062;52.464;16.922;2023-04-24T08:27:50;99380.78;;;15.76;74.77
77110;BME280;66062;52.464;16.922;2023-04-24T08:30:16;99373.13;;;15.73;75.82
77110;BME280;66062;52.464;16.922;2023-04-24T08:32:43;99368.13;;;15.70;76.42
77110;BME280;66062;52.464;16.922;2023-04-24T08:35:09;99378.16;;;16.02;75.82
77110;BME280;66062;52.464;16.922;2023-04-24T08:37:35;99371.94;;;16.08;74.95
77110;BME280;66062;52.464;16.922;2023-04-24T08:40:23;99361.56;;;15.86;76.31
77110;BME280;66062;52.464;16.922;2023-04-24T08:42:54;99364.28;;;16.32;73.85
77110;BME280;66062;52.464;16.922;2023-04-24T08:45:21;99361.34;;;16.92;71.89
77110;BME280;66062;52.464;16.922;2023-04-24T08:47:47;99360.13;;;17.39;68.72
77110;BME280;66062;52.464;16.922;2023-04-24T08:50:14;99362.53;;;17.99;66.12
77110;BME280;66062;52.464;16.922;2023-04-24T08:52:42;99368.84;;;17.86;65.96
77110;BME280;66062;52.464;16.922;2023-04-24T08:55:08;99363.50;;;17.28;68.09
77110;BME280;66062;52.464;16.922;2023-04-24T08:57:36;99365.88;;;17.05;69.63
77110;BME280;66062;52.464;16.922;2023-04-24T09:00:04;99361.69;;;17.16;69.47
77110;BME280;66062;52.464;16.922;2023-04-24T09:02:31;99368.44;;;16.67;70.72
77110;BME280;66062;52.464;16.922;2023-04-24T09:05:00;99365.50;;;16.95;70.81
77110;BME280;66062;52.464;16.922;2023-04-24T09:07:27;99360.47;;;17.12;69.60
77110;BME280;66062;52.464;16.922;2023-04-24T09:09:56;99361.25;;;17.25;69.03
77110;BME280;66062;52.464;16.922;2023-04-24T09:12:25;99361.44;;;18.06;66.43
77110;BME280;66062;52.464;16.922;2023-04-24T09:14:52;99360.31;;;18.20;65.55
77110;BME280;66062;52.464;16.922;2023-04-24T09:17:19;99360.50;;;19.11;62.55
77110;BME280;66062;52.464;16.922;2023-04-24T09:19:47;99367.78;;;20.07;59.73
77110;BME280;66062;52.464;16.922;2023-04-24T09:22:14;99353.94;;;21.08;56.04
77110;BME280;66062;52.464;16.922;2023-04-24T09:24:40;99357.75;;;20.96;55.96
77110;BME280;66062;52.464;16.922;2023-04-24T09:27:07;99352.19;;;20.67;56.40
77110;BME280;66062;52.464;16.922;2023-04-24T09:29:33;99367.34;;;19.14;60.65
77110;BME280;66062;52.464;16.922;2023-04-24T09:31:59;99354.69;;;19.26;60.66
77110;BME280;66062;52.464;16.922;2023-04-24T09:34:27;99353.56;;;18.05;66.19
77110;BME280;66062;52.464;16.922;2023-04-24T09:36:53;99355.81;;;19.37;61.15
77110;BME280;66062;52.464;16.922;2023-04-24T09:39:20;99352.22;;;19.91;58.43
77110;BME280;66062;52.464;16.922;2023-04-24T09:41:56;99358.22;;;20.34;56.94
77110;BME280;66062;52.464;16.922;2023-04-24T09:44:27;99360.06;;;19.92;58.45
77110;BME280;66062;52.464;16.922;2023-04-24T09:46:58;99350.28;;;19.80;58.54
77110;BME280;66062;52.464;16.922;2023-04-24T09:49:26;99344.69;;;19.63;59.39
77110;BME280;66062;52.464;16.922;2023-04-24T09:52:02;99354.91;;;19.43;59.85
77110;BME280;66062;52.464;16.922;2023-04-24T09:54:28;99347.69;;;20.26;57.86
77110;BME280;66062;52.464;16.922;2023-04-24T09:56:55;99338.56;;;20.51;56.39
77110;BME280;66062;52.464;16.922;2023-04-24T09:59:21;99346.00;;;20.14;57.49
77110;BME280;66062;52.464;16.922;2023-04-24T10:01:47;99345.38;;;19.58;59.62
77110;BME280;66062;52.464;16.922;2023-04-24T10:04:22;99347.72;;;20.73;55.93
77110;BME280;66062;52.464;16.922;2023-04-24T10:06:50;99356.81;;;20.43;55.99
77110;BME280;66062;52.464;16.922;2023-04-24T10:09:20;99353.63;;;18.48;61.22
77110;BME280;66062;52.464;16.922;2023-04-24T10:11:49;99355.00;;;19.00;59.92
77110;BME280;66062;52.464;16.922;2023-04-24T10:14:17;99359.31;;;18.89;60.70
77110;BME280;66062;52.464;16.922;2023-04-24T10:16:44;99365.50;;;18.90;61.38
77110;BME280;66062;52.464;16.922;2023-04-24T10:19:12;99357.19;;;19.09;60.53
77110;BME280;66062;52.464;16.922;2023-04-24T10:21:40;99355.16;;;19.23;59.92
77110;BME280;66062;52.464;16.922;2023-04-24T10:24:14;99356.19;;;19.40;59.71
77110;BME280;66062;52.464;16.922;2023-04-24T10:26:44;99349.44;;;19.49;59.29
77110;BME280;66062;52.464;16.922;2023-04-24T10:29:12;99354.94;;;19.73;58.78
77110;BME280;66062;52.464;16.922;2023-04-24T10:31:38;99360.28;;;19.13;60.39
77110;BME280;66062;52.464;16.922;2023-04-24T10:34:05;99358.56;;;18.57;62.25
77110;BME280;66062;52.464;16.922;2023-04-24T10:36:34;99357.38;;;18.22;63.62
77110;BME280;66062;52.464;16.922;2023-04-24T10:39:02;99362.28;;;17.75;65.41
77110;BME280;66062;52.464;16.922;2023-04-24T10:41:30;99359.06;;;17.91;65.91
77110;BME280;66062;52.464;16.922;2023-04-24T10:46:34;99352.34;;;19.96;59.33
77110;BME280;66062;52.464;16.922;2023-04-24T10:49:03;99361.16;;;19.07;61.84
77110;BME280;66062;52.464;16.922;2023-04-24T10:51:52;99363.41;;;18.49;64.06
77110;BME280;66062;52.464;16.922;2023-04-24T10:59:46;99360.63;;;19.16;62.24
77110;BME280;66062;52.464;16.922;2023-04-24T11:02:15;99370.38;;;18.63;64.02
77110;BME280;66062;52.464;16.922;2023-04-24T11:04:41;99373.88;;;19.25;61.92
77110;BME280;66062;52.464;16.922;2023-04-24T11:07:08;99362.47;;;20.00;59.33
77110;BME280;66062;52.464;16.922;2023-04-24T11:09:34;99372.72;;;19.32;60.21
77110;BME280;66062;52.464;16.922;2023-04-24T11:12:09;99369.69;;;20.71;56.14
77110;BME280;66062;52.464;16.922;2023-04-24T11:15:02;99367.34;;;19.50;58.81
77110;BME280;66062;52.464;16.922;2023-04-24T11:17:31;99371.53;;;20.36;55.58
77110;BME280;66062;52.464;16.922;2023-04-24T11:20:09;99362.53;;;18.98;57.77
77110;BME280;66062;52.464;16.922;2023-04-24T11:22:39;99364.41;;;19.52;56.08
77110;BME280;66062;52.464;16.922;2023-04-24T11:25:06;99363.25;;;19.41;56.13
77110;BME280;66062;52.464;16.922;2023-04-24T11:27:38;99380.00;;;19.68;55.20
77110;BME280;66062;52.464;16.922;2023-04-24T11:30:05;99378.53;;;19.54;55.98
77110;BME280;66062;52.464;16.922;2023-04-24T11:32:41;99372.53;;;19.82;56.31
77110;BME280;66062;52.464;16.922;2023-04-24T11:35:12;99396.16;;;18.03;60.92
77110;BME280;66062;52.464;16.922;2023-04-24T11:37:43;99385.44;;;18.21;61.39
77110;BME280;66062;52.464;16.922;2023-04-24T11:40:15;99387.59;;;19.05;59.12
77110;BME280;66062;52.464;16.922;2023-04-24T11:42:46;99380.63;;;19.34;57.58
77110;BME280;66062;52.464;16.922;2023-04-24T11:47:43;99387.53;;;18.93;57.77
77110;BME280;66062;52.464;16.922;2023-04-24T11:50:17;99399.03;;;18.89;57.39
77110;BME280;66062;52.464;16.922;2023-04-24T11:52:45;99378.13;;;18.77;57.31
77110;BME280;66062;52.464;16.922;2023-04-24T11:57:43;99374.81;;;19.30;54.47
77110;BME280;66062;52.464;16.922;2023-04-24T12:00:15;99372.28;;;20.13;52.69
77110;BME280;66062;52.464;16.922;2023-04-24T12:02:41;99375.47;;;19.80;52.67
77110;BME280;66062;52.464;16.922;2023-04-24T12:05:07;99369.97;;;18.59;56.45
77110;BME280;66062;52.464;16.922;2023-04-24T12:07:40;99379.31;;;19.73;53.37
77110;BME280;66062;52.464;16.922;2023-04-24T12:10:08;99366.94;;;19.65;53.89
77110;BME280;66062;52.464;16.922;2023-04-24T12:12:34;99367.56;;;19.49;54.42
77110;BME280;66062;52.464;16.922;2023-04-24T12:15:01;99366.06;;;18.98;55.87
77110;BME280;66062;52.464;16.922;2023-04-24T12:17:31;99359.34;;;19.37;54.60
77110;BME280;66062;52.464;16.922;2023-04-24T12:19:59;99361.50;;;18.49;56.14
77110;BME280;66062;52.464;16.922;2023-04-24T12:22:25;99366.72;;;17.94;58.08
77110;BME280;66062;52.464;16.922;2023-04-24T12:25:02;99358.56;;;18.57;56.90
77110;BME280;66062;52.464;16.922;2023-04-24T12:27:32;99358.78;;;18.56;57.05
77110;BME280;66062;52.464;16.922;2023-04-24T12:29:59;99360.56;;;18.68;57.44
77110;BME280;66062;52.464;16.922;2023-04-24T12:32:26;99377.16;;;17.84;59.53
77110;BME280;66062;52.464;16.922;2023-04-24T12:34:55;99364.84;;;17.57;61.22
77110;BME280;66062;52.464;16.922;2023-04-24T12:37:23;99370.34;;;17.82;59.83
77110;BME280;66062;52.464;16.922;2023-04-24T12:40:09;99366.34;;;17.91;60.19
77110;BME280;66062;52.464;16.922;2023-04-24T12:42:43;99369.19;;;17.96;60.42
77110;BME280;66062;52.464;16.922;2023-04-24T12:45:09;99364.88;;;17.88;61.47
77110;BME280;66062;52.464;16.922;2023-04-24T12:47:37;99357.59;;;17.89;61.52
77110;BME280;66062;52.464;16.922;2023-04-24T12:50:03;99339.28;;;17.98;62.05
77110;BME280;66062;52.464;16.922;2023-04-24T12:52:30;99343.06;;;17.90;60.54
77110;BME280;66062;52.464;16.922;2023-04-24T12:54:57;99333.94;;;17.91;59.86
77110;BME280;66062;52.464;16.922;2023-04-24T12:57:24;99332.66;;;17.93;59.33
77110;BME280;66062;52.464;16.922;2023-04-24T12:59:50;99338.13;;;17.87;60.35